sensor_id;sensor_type;location;lat;lon;timestamp;pressure;altitude;pressure_sealevel;temperature;humidity
69574;BME280;62840;52.366;5.980;2023-07-13T00:00:34;101241.34;;;16.47;66.40
69574;BME280;62840;52.366;5.980;2023-07-13T00:03:00;101235.63;;;16.51;66.20
69574;BME280;62840;52.366;5.980;2023-07-13T00:05:26;101242.53;;;16.53;66.13
69574;BME280;62840;52.366;5.980;2023-07-13T00:07:52;101233.31;;;16.56;66.38
69574;BME280;62840;52.366;5.980;2023-07-13T00:10:19;101236.69;;;16.58;66.77
69574;BME280;62840;52.366;5.980;2023-07-13T00:12:47;101232.00;;;16.60;66.47
69574;BME280;62840;52.366;5.980;2023-07-13T00:15:16;101235.38;;;16.62;66.13
69574;BME280;62840;52.366;5.980;2023-07-13T00:17:44;101230.69;;;16.64;66.57
69574;BME280;62840;52.366;5.980;2023-07-13T00:20:10;101229.66;;;16.65;66.59
69574;BME280;62840;52.366;5.980;2023-07-13T00:22:37;101238.44;;;16.67;66.52
69574;BME280;62840;52.366;5.980;2023-07-13T00:25:04;101237.44;;;16.68;66.11
69574;BME280;62840;52.366;5.980;2023-07-13T00:27:31;101240.84;;;16.70;66.31
69574;BME280;62840;52.366;5.980;2023-07-13T00:29:59;101253.28;;;16.71;66.46
69574;BME280;62840;52.366;5.980;2023-07-13T00:32:25;101245.19;;;16.71;66.37
69574;BME280;62840;52.366;5.980;2023-07-13T00:34:51;101244.22;;;16.72;66.67
69574;BME280;62840;52.366;5.980;2023-07-13T00:37:17;101235.44;;;16.70;66.54
69574;BME280;62840;52.366;5.980;2023-07-13T00:39:43;101235.44;;;16.70;66.67
69574;BME280;62840;52.366;5.980;2023-07-13T00:42:09;101244.22;;;16.72;66.39
69574;BME280;62840;52.366;5.980;2023-07-13T00:44:35;101245.91;;;16.73;66.59
69574;BME280;62840;52.366;5.980;2023-07-13T00:47:04;101242.19;;;16.74;66.27
69574;BME280;62840;52.366;5.980;2023-07-13T00:49:32;101241.19;;;16.75;66.84
69574;BME280;62840;52.366;5.980;2023-07-13T00:52:04;101243.91;;;16.75;66.72
69574;BME280;62840;52.366;5.980;2023-07-13T00:54:33;101240.34;;;16.75;66.53
69574;BME280;62840;52.366;5.980;2023-07-13T00:57:06;101243.06;;;16.75;66.41
69574;BME280;62840;52.366;5.980;2023-07-13T00:59:36;101244.72;;;16.76;66.88
69574;BME280;62840;52.366;5.980;2023-07-13T01:02:08;101246.59;;;16.75;66.73
69574;BME280;62840;52.366;5.980;2023-07-13T01:04:35;101255.66;;;16.74;66.80
69574;BME280;62840;52.366;5.980;2023-07-13T01:07:01;101245.91;;;16.73;67.12
69574;BME280;62840;52.366;5.980;2023-07-13T01:09:27;101253.28;;;16.71;66.93
69574;BME280;62840;52.366;5.980;2023-07-13T01:11:53;101254.13;;;16.72;66.92
69574;BME280;62840;52.366;5.980;2023-07-13T01:14:19;101255.97;;;16.71;66.71
69574;BME280;62840;52.366;5.980;2023-07-13T01:16:46;101259.69;;;16.70;66.95
69574;BME280;62840;52.366;5.980;2023-07-13T01:19:35;101253.59;;;16.68;67.10
69574;BME280;62840;52.366;5.980;2023-07-13T01:22:08;101253.91;;;16.65;66.84
69574;BME280;62840;52.366;5.980;2023-07-13T01:24:36;101261.28;;;16.63;67.12
69574;BME280;62840;52.366;5.980;2023-07-13T01:27:03;101263.31;;;16.61;67.57
69574;BME280;62840;52.366;5.980;2023-07-13T01:29:32;101256.91;;;16.62;67.29
69574;BME280;62840;52.366;5.980;2023-07-13T01:31:59;101256.22;;;16.60;67.26
69574;BME280;62840;52.366;5.980;2023-07-13T01:34:26;101260.63;;;16.61;67.54
69574;BME280;62840;52.366;5.980;2023-07-13T01:36:52;101257.94;;;16.61;67.65
69574;BME280;62840;52.366;5.980;2023-07-13T01:39:21;101255.91;;;16.63;67.56
69574;BME280;62840;52.366;5.980;2023-07-13T01:41:48;101255.25;;;16.61;67.82
69574;BME280;62840;52.366;5.980;2023-07-13T01:44:14;101253.53;;;16.60;67.66
69574;BME280;62840;52.366;5.980;2023-07-13T01:46:40;101252.84;;;16.58;67.60
69574;BME280;62840;52.366;5.980;2023-07-13T01:49:06;101252.16;;;16.56;67.33
69574;BME280;62840;52.366;5.980;2023-07-13T01:51:32;101255.84;;;16.55;67.60
69574;BME280;62840;52.366;5.980;2023-07-13T01:53:57;101260.22;;;16.56;67.55
69574;BME280;62840;52.366;5.980;2023-07-13T01:56:26;101267.63;;;16.54;67.49
69574;BME280;62840;52.366;5.980;2023-07-13T01:58:52;101254.31;;;16.52;67.57
69574;BME280;62840;52.366;5.980;2023-07-13T02:01:18;101265.09;;;16.52;67.49
69574;BME280;62840;52.366;5.980;2023-07-13T02:03:44;101275.00;;;16.52;67.11
69574;BME280;62840;52.366;5.980;2023-07-13T02:06:10;101266.91;;;16.52;67.71
69574;BME280;62840;52.366;5.980;2023-07-13T02:08:37;101267.09;;;16.50;67.56
69574;BME280;62840;52.366;5.980;2023-07-13T02:11:03;101259.16;;;16.48;67.65
69574;BME280;62840;52.366;5.980;2023-07-13T02:13:32;101262.88;;;16.47;67.43
69574;BME280;62840;52.366;5.980;2023-07-13T02:15:57;101268.25;;;16.47;67.84
69574;BME280;62840;52.366;5.980;2023-07-13T02:18:23;101264.88;;;16.45;67.62
69574;BME280;62840;52.366;5.980;2023-07-13T02:20:49;101261.16;;;16.46;67.35
69574;BME280;62840;52.366;5.980;2023-07-13T02:23:15;101268.56;;;16.44;67.49
69574;BME280;62840;52.366;5.980;2023-07-13T02:25:41;101268.56;;;16.44;67.27
69574;BME280;62840;52.366;5.980;2023-07-13T02:28:07;101268.72;;;16.43;67.52
69574;BME280;62840;52.366;5.980;2023-07-13T02:30:36;101267.00;;;16.42;67.38
69574;BME280;62840;52.366;5.980;2023-07-13T02:33:02;101268.88;;;16.41;67.58
69574;BME280;62840;52.366;5.980;2023-07-13T02:35:28;101261.78;;;16.40;67.45
69574;BME280;62840;52.366;5.980;2023-07-13T02:37:54;101264.31;;;16.42;67.37
69574;BME280;62840;52.366;5.980;2023-07-13T02:40:20;101262.66;;;16.41;67.57
69574;BME280;62840;52.366;5.980;2023-07-13T02:42:45;101263.47;;;16.41;67.16
69574;BME280;62840;52.366;5.980;2023-07-13T02:45:12;101256.38;;;16.40;67.34
69574;BME280;62840;52.366;5.980;2023-07-13T02:47:41;101260.94;;;16.40;67.34
69574;BME280;62840;52.366;5.980;2023-07-13T02:50:08;101263.81;;;16.38;67.34
69574;BME280;62840;52.366;5.980;2023-07-13T02:52:34;101264.09;;;16.35;67.36
69574;BME280;62840;52.366;5.980;2023-07-13T02:55:00;101271.19;;;16.36;67.55
69574;BME280;62840;52.366;5.980;2023-07-13T02:57:26;101271.19;;;16.36;67.30
69574;BME280;62840;52.366;5.980;2023-07-13T02:59:52;101263.41;;;16.33;67.44
69574;BME280;62840;52.366;5.980;2023-07-13T03:02:18;101269.81;;;16.32;67.20
69574;BME280;62840;52.366;5.980;2023-07-13T03:04:46;101274.50;;;16.30;67.75
69574;BME280;62840;52.366;5.980;2023-07-13T03:07:12;101277.19;;;16.30;67.62
69574;BME280;62840;52.366;5.980;2023-07-13T03:09:39;101278.16;;;16.29;67.34
69574;BME280;62840;52.366;5.980;2023-07-13T03:12:06;101282.88;;;16.27;67.41
69574;BME280;62840;52.366;5.980;2023-07-13T03:14:33;101286.56;;;16.26;67.67
69574;BME280;62840;52.366;5.980;2023-07-13T03:16:59;101287.56;;;16.25;67.57
69574;BME280;62840;52.366;5.980;2023-07-13T03:19:24;101290.25;;;16.25;67.73
69574;BME280;62840;52.366;5.980;2023-07-13T03:21:53;101289.25;;;16.26;67.57
69574;BME280;62840;52.366;5.980;2023-07-13T03:24:19;101294.78;;;16.24;67.58
69574;BME280;62840;52.366;5.980;2023-07-13T03:26:45;101288.56;;;16.24;67.51
69574;BME280;62840;52.366;5.980;2023-07-13T03:29:11;101299.31;;;16.24;67.69
69574;BME280;62840;52.366;5.980;2023-07-13T03:31:37;101295.94;;;16.22;67.79
69574;BME280;62840;52.366;5.980;2023-07-13T03:34:04;101290.53;;;16.22;67.76
69574;BME280;62840;52.366;5.980;2023-07-13T03:36:30;101294.25;;;16.21;67.42
69574;BME280;62840;52.366;5.980;2023-07-13T03:39:01;101295.09;;;16.21;67.55
69574;BME280;62840;52.366;5.980;2023-07-13T03:41:28;101296.25;;;16.19;67.58
69574;BME280;62840;52.366;5.980;2023-07-13T03:43:54;101305.84;;;16.21;67.66
69574;BME280;62840;52.366;5.980;2023-07-13T03:46:20;101305.00;;;16.21;67.75
69574;BME280;62840;52.366;5.980;2023-07-13T03:48:47;101307.00;;;16.19;67.98
69574;BME280;62840;52.366;5.980;2023-07-13T03:51:14;101312.38;;;16.19;67.71
69574;BME280;62840;52.366;5.980;2023-07-13T03:53:43;101313.38;;;16.18;68.05
69574;BME280;62840;52.366;5.980;2023-07-13T03:56:12;101313.38;;;16.18;67.75
69574;BME280;62840;52.366;5.980;2023-07-13T03:58:40;101309.00;;;16.17;67.86
69574;BME280;62840;52.366;5.980;2023-07-13T04:01:09;101314.38;;;16.17;67.67
69574;BME280;62840;52.366;5.980;2023-07-13T04:03:36;101312.72;;;16.16;68.10
69574;BME280;62840;52.366;5.980;2023-07-13T04:06:04;101309.31;;;16.14;68.02
69574;BME280;62840;52.366;5.980;2023-07-13T04:08:34;101313.00;;;16.13;67.91
69574;BME280;62840;52.366;5.980;2023-07-13T04:11:02;101320.09;;;16.14;68.34
69574;BME280;62840;52.366;5.980;2023-07-13T04:13:32;101325.47;;;16.14;68.14
69574;BME280;62840;52.366;5.980;2023-07-13T04:15:58;101321.75;;;16.15;68.24
69574;BME280;62840;52.366;5.980;2023-07-13T04:18:24;101325.47;;;16.14;68.55
69574;BME280;62840;52.366;5.980;2023-07-13T04:20:50;101327.28;;;16.13;68.41
69574;BME280;62840;52.366;5.980;2023-07-13T04:23:17;101327.16;;;16.15;68.57
69574;BME280;62840;52.366;5.980;2023-07-13T04:25:43;101327.28;;;16.13;68.40
69574;BME280;62840;52.366;5.980;2023-07-13T04:28:10;101329.84;;;16.15;68.54
69574;BME280;62840;52.366;5.980;2023-07-13T04:30:39;101327.16;;;16.15;68.70
69574;BME280;62840;52.366;5.980;2023-07-13T04:33:05;101337.91;;;16.15;68.61
69574;BME280;62840;52.366;5.980;2023-07-13T04:35:31;101333.38;;;16.15;68.71
69574;BME280;62840;52.366;5.980;2023-07-13T04:37:57;101339.63;;;16.16;68.47
69574;BME280;62840;52.366;5.980;2023-07-13T04:40:23;101334.22;;;16.16;68.81
69574;BME280;62840;52.366;5.980;2023-07-13T04:42:49;101335.91;;;16.17;68.50
69574;BME280;62840;52.366;5.980;2023-07-13T04:45:15;101337.59;;;16.18;69.05
69574;BME280;62840;52.366;5.980;2023-07-13T04:47:43;101340.13;;;16.19;69.01
69574;BME280;62840;52.366;5.980;2023-07-13T04:50:10;101344.38;;;16.22;68.53
69574;BME280;62840;52.366;5.980;2023-07-13T04:52:37;101339.81;;;16.22;68.52
69574;BME280;62840;52.366;5.980;2023-07-13T04:55:04;101347.75;;;16.24;68.87
69574;BME280;62840;52.366;5.980;2023-07-13T04:57:31;101342.25;;;16.25;68.64
69574;BME280;62840;52.366;5.980;2023-07-13T04:59:57;101340.25;;;16.27;68.68
69574;BME280;62840;52.366;5.980;2023-07-13T05:02:23;101340.94;;;16.30;68.83
69574;BME280;62840;52.366;5.980;2023-07-13T05:04:51;101350.56;;;16.32;68.96
69574;BME280;62840;52.366;5.980;2023-07-13T05:07:17;101348.84;;;16.31;68.92
69574;BME280;62840;52.366;5.980;2023-07-13T05:09:43;101355.63;;;16.35;69.13
69574;BME280;62840;52.366;5.980;2023-07-13T05:12:09;101353.63;;;16.37;69.16
69574;BME280;62840;52.366;5.980;2023-07-13T05:14:36;101361.56;;;16.39;68.83
69574;BME280;62840;52.366;5.980;2023-07-13T05:17:02;101364.06;;;16.40;68.82
69574;BME280;62840;52.366;5.980;2023-07-13T05:19:28;101364.94;;;16.41;69.40
69574;BME280;62840;52.366;5.980;2023-07-13T05:21:56;101368.16;;;16.44;69.09
69574;BME280;62840;52.366;5.980;2023-07-13T05:24:22;101364.16;;;16.48;69.30
69574;BME280;62840;52.366;5.980;2023-07-13T05:26:51;101373.66;;;16.53;69.01
69574;BME280;62840;52.366;5.980;2023-07-13T05:29:17;101375.03;;;16.57;69.19
69574;BME280;62840;52.366;5.980;2023-07-13T05:31:43;101376.72;;;16.58;69.04
69574;BME280;62840;52.366;5.980;2023-07-13T05:34:08;101374.41;;;16.63;68.99
69574;BME280;62840;52.366;5.980;2023-07-13T05:36:34;101375.78;;;16.67;68.72
69574;BME280;62840;52.366;5.980;2023-07-13T05:39:04;101371.09;;;16.69;68.87
69574;BME280;62840;52.366;5.980;2023-07-13T05:41:30;101382.25;;;16.74;69.26
69574;BME280;62840;52.366;5.980;2023-07-13T05:43:56;101388.19;;;16.78;69.05
69574;BME280;62840;52.366;5.980;2023-07-13T05:46:22;101389.72;;;16.80;68.73
69574;BME280;62840;52.366;5.980;2023-07-13T05:48:48;101393.84;;;16.84;69.21
69574;BME280;62840;52.366;5.980;2023-07-13T05:51:14;101388.13;;;16.87;68.74
69574;BME280;62840;52.366;5.980;2023-07-13T05:53:40;101398.63;;;16.91;68.92
69574;BME280;62840;52.366;5.980;2023-07-13T05:56:11;101397.31;;;16.95;68.86
69574;BME280;62840;52.366;5.980;2023-07-13T05:58:37;101397.69;;;17.00;69.09
69574;BME280;62840;52.366;5.980;2023-07-13T06:01:05;101399.06;;;17.04;69.06
69574;BME280;62840;52.366;5.980;2023-07-13T06:03:35;101398.75;;;17.07;68.81
69574;BME280;62840;52.366;5.980;2023-07-13T06:06:01;101404.50;;;17.12;68.99
69574;BME280;62840;52.366;5.980;2023-07-13T06:08:28;101401.53;;;17.15;68.92
69574;BME280;62840;52.366;5.980;2023-07-13T06:10:54;101406.59;;;17.18;69.20
69574;BME280;62840;52.366;5.980;2023-07-13T06:13:22;101402.59;;;17.22;69.08
69574;BME280;62840;52.366;5.980;2023-07-13T06:15:48;101409.34;;;17.26;69.14
69574;BME280;62840;52.366;5.980;2023-07-13T06:18:14;101409.03;;;17.29;69.16
69574;BME280;62840;52.366;5.980;2023-07-13T06:20:40;101409.72;;;17.31;69.34
69574;BME280;62840;52.366;5.980;2023-07-13T06:23:06;101418.19;;;17.37;69.45
69574;BME280;62840;52.366;5.980;2023-07-13T06:25:32;101414.31;;;17.39;69.00
69574;BME280;62840;52.366;5.980;2023-07-13T06:27:59;101421.94;;;17.44;69.16
69574;BME280;62840;52.366;5.980;2023-07-13T06:30:27;101421.31;;;17.50;68.92
69574;BME280;62840;52.366;5.980;2023-07-13T06:32:54;101428.09;;;17.54;69.13
69574;BME280;62840;52.366;5.980;2023-07-13T06:35:20;101409.19;;;17.54;69.08
69574;BME280;62840;52.366;5.980;2023-07-13T06:38:01;101423.44;;;17.64;69.05
69574;BME280;62840;52.366;5.980;2023-07-13T06:40:37;101417.72;;;17.67;68.80
69574;BME280;62840;52.366;5.980;2023-07-13T06:43:03;101417.38;;;17.70;69.03
69574;BME280;62840;52.366;5.980;2023-07-13T06:45:32;101426.41;;;17.79;68.66
69574;BME280;62840;52.366;5.980;2023-07-13T06:48:03;101418.53;;;17.86;69.32
69574;BME280;62840;52.366;5.980;2023-07-13T06:50:30;101431.38;;;17.92;68.73
69574;BME280;62840;52.366;5.980;2023-07-13T06:52:56;101429.03;;;17.97;68.84
69574;BME280;62840;52.366;5.980;2023-07-13T06:55:21;101429.03;;;17.97;68.79
69574;BME280;62840;52.366;5.980;2023-07-13T06:57:56;101433.81;;;18.03;69.03
69574;BME280;62840;52.366;5.980;2023-07-13T07:00:23;101433.16;;;18.09;68.58
69574;BME280;62840;52.366;5.980;2023-07-13T07:02:52;101433.50;;;18.14;68.58
69574;BME280;62840;52.366;5.980;2023-07-13T07:05:18;101444.66;;;18.20;68.30
69574;BME280;62840;52.366;5.980;2023-07-13T07:07:43;101440.63;;;18.24;68.30
69574;BME280;62840;52.366;5.980;2023-07-13T07:10:09;101438.28;;;18.29;68.59
69574;BME280;62840;52.366;5.980;2023-07-13T07:12:35;101429.19;;;18.30;68.36
69574;BME280;62840;52.366;5.980;2023-07-13T07:15:01;101435.94;;;18.34;68.15
69574;BME280;62840;52.366;5.980;2023-07-13T07:17:30;101432.25;;;18.35;68.39
69574;BME280;62840;52.366;5.980;2023-07-13T07:19:58;101442.72;;;18.38;67.98
69574;BME280;62840;52.366;5.980;2023-07-13T07:22:24;101440.69;;;18.40;68.08
69574;BME280;62840;52.366;5.980;2023-07-13T07:24:50;101453.69;;;18.45;67.79
69574;BME280;62840;52.366;5.980;2023-07-13T07:27:16;101450.50;;;18.41;68.28
69574;BME280;62840;52.366;5.980;2023-07-13T07:29:42;101450.84;;;18.46;68.42
69574;BME280;62840;52.366;5.980;2023-07-13T07:32:08;101448.84;;;18.48;67.85
69574;BME280;62840;52.366;5.980;2023-07-13T07:34:34;101451.38;;;18.50;67.83
69574;BME280;62840;52.366;5.980;2023-07-13T07:37:03;101448.50;;;18.51;67.99
69574;BME280;62840;52.366;5.980;2023-07-13T07:39:29;101453.91;;;18.51;68.06
69574;BME280;62840;52.366;5.980;2023-07-13T07:41:56;101442.78;;;18.54;67.90
69574;BME280;62840;52.366;5.980;2023-07-13T07:44:22;101445.28;;;18.56;67.94
69574;BME280;62840;52.366;5.980;2023-07-13T07:46:48;101445.13;;;18.58;67.62
69574;BME280;62840;52.366;5.980;2023-07-13T07:49:14;101449.22;;;18.62;67.74
69574;BME280;62840;52.366;5.980;2023-07-13T07:51:40;101441.44;;;18.67;67.68
69574;BME280;62840;52.366;5.980;2023-07-13T07:54:08;101445.38;;;18.72;67.27
69574;BME280;62840;52.366;5.980;2023-07-13T07:56:34;101443.03;;;18.78;67.70
69574;BME280;62840;52.366;5.980;2023-07-13T07:59:00;101450.94;;;18.79;67.28
69574;BME280;62840;52.366;5.980;2023-07-13T08:01:26;101456.34;;;18.79;67.65
69574;BME280;62840;52.366;5.980;2023-07-13T08:03:52;101463.47;;;18.80;67.13
69574;BME280;62840;52.366;5.980;2023-07-13T08:06:18;101453.84;;;18.78;66.94
69574;BME280;62840;52.366;5.980;2023-07-13T08:08:44;101449.28;;;18.78;67.32
69574;BME280;62840;52.366;5.980;2023-07-13T08:11:12;101448.94;;;18.81;66.87
69574;BME280;62840;52.366;5.980;2023-07-13T08:13:38;101450.28;;;18.85;66.98
69574;BME280;62840;52.366;5.980;2023-07-13T08:16:04;101460.78;;;18.88;66.98
69574;BME280;62840;52.366;5.980;2023-07-13T08:18:31;101453.53;;;18.89;66.63
69574;BME280;62840;52.366;5.980;2023-07-13T08:20:57;101468.72;;;18.90;67.14
69574;BME280;62840;52.366;5.980;2023-07-13T08:23:23;101467.88;;;18.89;67.25
69574;BME280;62840;52.366;5.980;2023-07-13T08:25:53;101457.91;;;18.90;66.88
69574;BME280;62840;52.366;5.980;2023-07-13T08:28:24;101449.63;;;18.91;66.68
69574;BME280;62840;52.366;5.980;2023-07-13T08:30:50;101454.69;;;18.94;66.81
69574;BME280;62840;52.366;5.980;2023-07-13T08:33:16;101456.41;;;18.95;66.47
69574;BME280;62840;52.366;5.980;2023-07-13T08:35:45;101456.41;;;18.95;66.20
69574;BME280;62840;52.366;5.980;2023-07-13T08:38:11;101452.00;;;18.94;65.61
69574;BME280;62840;52.366;5.980;2023-07-13T08:40:39;101457.41;;;18.94;65.70
69574;BME280;62840;52.366;5.980;2023-07-13T08:43:07;101458.41;;;18.93;65.88
69574;BME280;62840;52.366;5.980;2023-07-13T08:45:43;101456.72;;;18.92;65.45
69574;BME280;62840;52.366;5.980;2023-07-13T08:48:18;101458.72;;;18.90;65.62
69574;BME280;62840;52.366;5.980;2023-07-13T08:50:51;101462.47;;;18.89;65.49
69574;BME280;62840;52.366;5.980;2023-07-13T08:53:23;101460.44;;;18.91;65.68
69574;BME280;62840;52.366;5.980;2023-07-13T08:55:58;101460.09;;;18.94;65.43
69574;BME280;62840;52.366;5.980;2023-07-13T08:58:27;101461.47;;;18.99;65.58
69574;BME280;62840;52.366;5.980;2023-07-13T09:01:02;101467.19;;;19.04;65.58
69574;BME280;62840;52.366;5.980;2023-07-13T09:03:42;101463.34;;;19.06;65.38
69574;BME280;62840;52.366;5.980;2023-07-13T09:06:17;101466.38;;;19.11;65.70
69574;BME280;62840;52.366;5.980;2023-07-13T09:08:50;101463.19;;;19.16;65.91
69574;BME280;62840;52.366;5.980;2023-07-13T09:11:34;101467.91;;;19.22;65.11
69574;BME280;62840;52.366;5.980;2023-07-13T09:14:26;101477.34;;;19.26;65.05
69574;BME280;62840;52.366;5.980;2023-07-13T09:17:12;101468.56;;;19.32;64.71
69574;BME280;62840;52.366;5.980;2023-07-13T09:19:43;101473.81;;;19.42;65.02
69574;BME280;62840;52.366;5.980;2023-07-13T09:22:17;101470.28;;;19.50;64.68
69574;BME280;62840;52.366;5.980;2023-07-13T09:24:52;101469.59;;;19.56;64.72
69574;BME280;62840;52.366;5.980;2023-07-13T09:27:27;101470.94;;;19.60;64.50
69574;BME280;62840;52.366;5.980;2023-07-13T09:30:03;101476.03;;;19.63;64.06
69574;BME280;62840;52.366;5.980;2023-07-13T09:32:53;101470.28;;;19.66;64.17
69574;BME280;62840;52.366;5.980;2023-07-13T09:35:22;101467.88;;;19.71;64.49
69574;BME280;62840;52.366;5.980;2023-07-13T09:37:51;101458.41;;;19.75;64.35
69574;BME280;62840;52.366;5.980;2023-07-13T09:40:30;101470.94;;;19.76;64.09
69574;BME280;62840;52.366;5.980;2023-07-13T09:43:18;101456.38;;;19.77;64.09
69574;BME280;62840;52.366;5.980;2023-07-13T09:45:47;101475.50;;;19.76;63.84
69574;BME280;62840;52.366;5.980;2023-07-13T09:48:17;101475.00;;;19.72;63.76
69574;BME280;62840;52.366;5.980;2023-07-13T09:50:44;101484.47;;;19.68;63.84
69574;BME280;62840;52.366;5.980;2023-07-13T09:53:14;101476.53;;;19.67;63.34
69574;BME280;62840;52.366;5.980;2023-07-13T09:55:43;101483.13;;;19.64;63.41
69574;BME280;62840;52.366;5.980;2023-07-13T09:58:12;101490.25;;;19.65;63.63
69574;BME280;62840;52.366;5.980;2023-07-13T10:00:40;101491.25;;;19.72;63.76
69574;BME280;62840;52.366;5.980;2023-07-13T10:03:19;101491.06;;;19.82;64.56
69574;BME280;62840;52.366;5.980;2023-07-13T10:05:47;101496.09;;;19.93;63.93
69574;BME280;62840;52.366;5.980;2023-07-13T10:08:25;101508.59;;;20.03;64.06
69574;BME280;62840;52.366;5.980;2023-07-13T10:10:54;101510.78;;;20.07;63.64
69574;BME280;62840;52.366;5.980;2023-07-13T10:13:29;101502.00;;;20.05;63.39
69574;BME280;62840;52.366;5.980;2023-07-13T10:16:00;101501.69;;;20.00;62.87
69574;BME280;62840;52.366;5.980;2023-07-13T10:18:33;101512.03;;;19.96;62.90
69574;BME280;62840;52.366;5.980;2023-07-13T10:21:11;101519.28;;;19.96;62.72
69574;BME280;62840;52.366;5.980;2023-07-13T10:23:39;101517.59;;;19.95;62.79
69574;BME280;62840;52.366;5.980;2023-07-13T10:26:13;101525.22;;;19.99;62.78
69574;BME280;62840;52.366;5.980;2023-07-13T10:28:44;101524.38;;;19.99;62.73
69574;BME280;62840;52.366;5.980;2023-07-13T10:31:14;101523.69;;;19.97;62.97
69574;BME280;62840;52.366;5.980;2023-07-13T10:33:44;101531.81;;;19.97;63.00
69574;BME280;62840;52.366;5.980;2023-07-13T10:36:17;101520.16;;;19.96;63.13
69574;BME280;62840;52.366;5.980;2023-07-13T10:38:55;101521.81;;;19.97;62.99
69574;BME280;62840;52.366;5.980;2023-07-13T10:41:25;101524.69;;;19.96;62.75
69574;BME280;62840;52.366;5.980;2023-07-13T10:43:57;101528.44;;;19.95;62.59
69574;BME280;62840;52.366;5.980;2023-07-13T10:46:25;101525.91;;;19.93;62.36
69574;BME280;62840;52.366;5.980;2023-07-13T10:48:58;101530.47;;;19.93;62.89
69574;BME280;62840;52.366;5.980;2023-07-13T10:51:32;101525.06;;;19.93;62.29
69574;BME280;62840;52.366;5.980;2023-07-13T10:54:19;101522.66;;;19.98;62.18
69574;BME280;62840;52.366;5.980;2023-07-13T10:56:48;101532.81;;;20.04;62.76
69574;BME280;62840;52.366;5.980;2023-07-13T10:59:18;101533.81;;;20.11;62.18
69574;BME280;62840;52.366;5.980;2023-07-13T11:01:54;101529.91;;;20.14;62.33
69574;BME280;62840;52.366;5.980;2023-07-13T11:04:25;101531.78;;;20.13;61.93
69574;BME280;62840;52.366;5.980;2023-07-13T11:06:57;101510.94;;;20.14;61.81
69574;BME280;62840;52.366;5.980;2023-07-13T11:09:34;101519.06;;;20.22;61.65
69574;BME280;62840;52.366;5.980;2023-07-13T11:12:06;101506.66;;;20.28;61.69
69574;BME280;62840;52.366;5.980;2023-07-13T11:14:36;101511.91;;;20.37;61.20
69574;BME280;62840;52.366;5.980;2023-07-13T11:17:33;101518.16;;;20.46;60.24
69574;BME280;62840;52.366;5.980;2023-07-13T11:20:21;101527.63;;;20.50;60.04
69574;BME280;62840;52.366;5.980;2023-07-13T11:22:51;101525.94;;;20.49;60.73
69574;BME280;62840;52.366;5.980;2023-07-13T11:28:05;101540.84;;;20.45;61.63
69574;BME280;62840;52.366;5.980;2023-07-13T11:30:44;101543.38;;;20.38;62.51
69574;BME280;62840;52.366;5.980;2023-07-13T11:33:18;101542.56;;;20.30;62.87
69574;BME280;62840;52.366;5.980;2023-07-13T11:35:58;101536.16;;;20.23;63.77
69574;BME280;62840;52.366;5.980;2023-07-13T11:38:32;101542.25;;;20.16;64.44
69574;BME280;62840;52.366;5.980;2023-07-13T11:41:04;101549.72;;;20.14;64.77
69574;BME280;62840;52.366;5.980;2023-07-13T11:43:32;101543.97;;;20.17;65.22
69574;BME280;62840;52.366;5.980;2023-07-13T11:45:58;101540.56;;;20.15;64.78
69574;BME280;62840;52.366;5.980;2023-07-13T11:48:27;101543.97;;;20.09;64.77
69574;BME280;62840;52.366;5.980;2023-07-13T11:51:00;101557.03;;;20.06;64.44
69574;BME280;62840;52.366;5.980;2023-07-13T11:53:33;101567.69;;;19.99;64.71
69574;BME280;62840;52.366;5.980;2023-07-13T11:56:03;101554.16;;;19.91;64.87
69574;BME280;62840;52.366;5.980;2023-07-13T11:58:31;101567.03;;;19.81;64.74
69574;BME280;62840;52.366;5.980;2023-07-13T12:00:59;101564.84;;;19.68;65.08
69574;BME280;62840;52.366;5.980;2023-07-13T12:03:28;101571.25;;;19.58;65.66
69574;BME280;62840;52.366;5.980;2023-07-13T12:05:59;101571.72;;;19.46;65.74
69574;BME280;62840;52.366;5.980;2023-07-13T12:08:27;101568.34;;;19.35;66.14
69574;BME280;62840;52.366;5.980;2023-07-13T12:11:00;101567.28;;;19.28;66.58
69574;BME280;62840;52.366;5.980;2023-07-13T12:13:35;101552.91;;;19.20;66.87
69574;BME280;62840;52.366;5.980;2023-07-13T12:16:02;101556.09;;;19.15;67.10
69574;BME280;62840;52.366;5.980;2023-07-13T12:18:37;101561.69;;;19.13;67.74
69574;BME280;62840;52.366;5.980;2023-07-13T12:21:12;101560.88;;;19.13;67.55
69574;BME280;62840;52.366;5.980;2023-07-13T12:23:43;101567.94;;;19.14;67.84
69574;BME280;62840;52.366;5.980;2023-07-13T12:26:12;101571.00;;;19.19;68.13
69574;BME280;62840;52.366;5.980;2023-07-13T12:28:45;101566.59;;;19.26;68.39
69574;BME280;62840;52.366;5.980;2023-07-13T12:31:31;101563.25;;;19.32;69.08
69574;BME280;62840;52.366;5.980;2023-07-13T12:34:02;101565.13;;;19.40;68.54
69574;BME280;62840;52.366;5.980;2023-07-13T12:36:36;101563.44;;;19.47;69.05
69574;BME280;62840;52.366;5.980;2023-07-13T12:39:14;101563.31;;;19.57;69.02
69574;BME280;62840;52.366;5.980;2023-07-13T12:41:42;101572.44;;;19.64;68.70
69574;BME280;62840;52.366;5.980;2023-07-13T12:44:11;101562.63;;;19.71;69.22
69574;BME280;62840;52.366;5.980;2023-07-13T12:46:39;101569.75;;;19.81;69.14
69574;BME280;62840;52.366;5.980;2023-07-13T12:49:15;101573.09;;;19.83;68.76
69574;BME280;62840;52.366;5.980;2023-07-13T12:51:49;101567.53;;;19.84;68.96
69574;BME280;62840;52.366;5.980;2023-07-13T12:54:19;101566.53;;;19.85;69.24
69574;BME280;62840;52.366;5.980;2023-07-13T12:56:49;101571.59;;;19.88;69.20
69574;BME280;62840;52.366;5.980;2023-07-13T12:59:19;101571.59;;;19.88;68.71
69574;BME280;62840;52.366;5.980;2023-07-13T13:01:48;101574.47;;;19.87;68.62